Time;durP1;ratioP1;P1;durP2;ratioP2;P2;SDS_P1;SDS_P2;PMS_P1;PMS_P2;Temp;Humidity;BMP_temperature;BMP_pressure;BME280_temperature;BME280_humidity;BME280_pressure;Samples;Min_cycle;Max_cycle;Signal;HPM_P1;HPM_P2
2021/01/14 00:00:33;;;;;;;6.18;4.25;;;8.00;67.40;;;;;;4911047;29;20202;-92
2021/01/14 00:03:00;;;;;;;7.07;3.13;;;8.10;67.40;;;;;;4911672;29;20206;-92
2021/01/14 00:05:25;;;;;;;12.38;3.30;;;8.00;66.90;;;;;;4910904;29;20296;-92
2021/01/14 00:07:53;;;;;;;8.77;3.67;;;8.00;67.00;;;;;;4907775;29;20244;-92
2021/01/14 00:10:19;;;;;;;5.75;3.50;;;8.00;67.00;;;;;;4907081;29;20203;-92
2021/01/14 00:12:45;;;;;;;4.45;2.97;;;8.00;67.20;;;;;;4920678;28;20222;-92
2021/01/14 00:15:13;;;;;;;11.70;4.07;;;7.90;67.60;;;;;;4926591;29;20208;-91
2021/01/14 00:17:39;;;;;;;4.22;3.38;;;8.00;67.20;;;;;;4913638;29;20425;-92
2021/01/14 00:20:13;;;;;;;5.27;3.53;;;8.10;67.30;;;;;;4907083;29;20186;-92
2021/01/14 00:22:39;;;;;;;8.38;3.55;;;8.10;67.30;;;;;;4905474;29;20265;-93
2021/01/14 00:25:07;;;;;;;7.20;3.63;;;8.20;67.30;;;;;;4903876;29;20217;-92
2021/01/14 00:27:33;;;;;;;6.07;3.10;;;8.10;67.10;;;;;;4903642;29;20473;-92
2021/01/14 00:29:59;;;;;;;5.22;2.60;;;8.10;67.10;;;;;;4904770;29;20181;-93
2021/01/14 00:32:25;;;;;;;8.50;3.60;;;8.10;67.90;;;;;;4904451;29;20201;-93
2021/01/14 00:34:51;;;;;;;4.03;2.83;;;8.10;67.10;;;;;;4905743;29;20769;-92
2021/01/14 00:40:01;;;;;;;7.57;3.47;;;8.10;66.80;;;;;;4922593;29;20646;-91
2021/01/14 00:42:27;;;;;;;9.35;3.45;;;8.00;67.10;;;;;;4905903;29;20238;-93
2021/01/14 00:44:53;;;;;;;4.50;3.30;;;8.00;67.70;;;;;;4906199;29;20678;-93
2021/01/14 00:47:18;;;;;;;4.23;3.10;;;8.10;67.60;;;;;;4906161;29;20189;-93
2021/01/14 00:49:44;;;;;;;10.50;3.63;;;8.00;67.60;;;;;;4906364;29;20186;-93
2021/01/14 00:52:11;;;;;;;6.90;2.80;;;8.10;67.80;;;;;;4906722;29;20289;-93
2021/01/14 00:54:40;;;;;;;9.82;3.50;;;8.20;68.40;;;;;;4907684;29;20186;-93
2021/01/14 00:57:09;;;;;;;13.73;3.92;;;8.20;67.40;;;;;;4907315;29;20178;-92
2021/01/14 00:59:38;;;;;;;10.93;4.05;;;8.10;67.50;;;;;;4907677;29;20188;-93
2021/01/14 01:02:05;;;;;;;6.85;4.50;;;8.20;67.40;;;;;;4906574;29;20273;-93
2021/01/14 01:04:31;;;;;;;9.73;4.05;;;8.20;67.30;;;;;;4907738;29;20814;-93
2021/01/14 01:06:56;;;;;;;8.15;4.13;;;8.10;67.30;;;;;;4917940;29;20166;-93
2021/01/14 01:09:23;;;;;;;5.63;4.10;;;8.20;67.70;;;;;;4924964;29;20182;-93
2021/01/14 01:11:49;;;;;;;9.70;3.60;;;8.20;67.60;;;;;;4919193;29;20472;-93
2021/01/14 01:14:15;;;;;;;9.55;4.45;;;8.10;68.20;;;;;;4907252;29;20243;-93
2021/01/14 01:16:40;;;;;;;8.20;5.13;;;8.10;68.60;;;;;;4905537;29;20222;-93
2021/01/14 01:19:06;;;;;;;9.40;4.40;;;8.30;68.90;;;;;;4906533;29;20478;-92
2021/01/14 01:21:32;;;;;;;5.50;4.70;;;8.20;68.90;;;;;;4905405;29;20889;-93
2021/01/14 01:23:58;;;;;;;10.27;5.30;;;8.20;69.10;;;;;;4907303;29;20189;-93
2021/01/14 01:26:24;;;;;;;8.03;4.70;;;8.20;69.50;;;;;;4908026;29;20218;-93
2021/01/14 01:28:49;;;;;;;9.50;4.80;;;8.10;69.80;;;;;;4908345;29;20189;-93
2021/01/14 01:31:15;;;;;;;16.73;4.60;;;8.10;70.00;;;;;;4906865;29;20205;-93
2021/01/14 01:33:42;;;;;;;7.05;4.43;;;8.10;70.20;;;;;;4907749;29;20270;-94
2021/01/14 01:36:12;;;;;;;7.80;4.85;;;8.20;70.10;;;;;;4909153;29;20269;-93
2021/01/14 01:38:38;;;;;;;9.30;5.25;;;7.90;70.50;;;;;;4907299;29;20276;-92
2021/01/14 01:41:03;;;;;;;8.57;5.20;;;7.80;71.10;;;;;;4906827;29;20216;-92
2021/01/14 01:43:30;;;;;;;8.33;5.33;;;7.80;71.70;;;;;;4909047;29;20268;-92
2021/01/14 01:45:56;;;;;;;16.25;5.28;;;7.60;72.30;;;;;;4907802;29;20240;-92
2021/01/14 01:48:23;;;;;;;9.77;5.10;;;7.70;72.60;;;;;;4906755;29;20182;-93
2021/01/14 01:50:53;;;;;;;8.43;7.07;;;7.80;73.00;;;;;;4906101;29;20206;-92
2021/01/14 01:53:20;;;;;;;13.30;7.22;;;7.70;72.70;;;;;;4907283;29;20655;-92
2021/01/14 01:55:46;;;;;;;12.32;6.45;;;7.70;72.70;;;;;;4907421;29;20189;-92
2021/01/14 01:58:14;;;;;;;11.45;7.30;;;7.60;73.10;;;;;;4905521;29;20193;-93
2021/01/14 02:00:40;;;;;;;12.05;6.65;;;7.70;73.20;;;;;;4904769;29;20674;-93
2021/01/14 02:03:06;;;;;;;24.85;9.60;;;7.80;73.80;;;;;;4905163;29;20188;-91
2021/01/14 02:05:35;;;;;;;9.30;6.75;;;7.70;74.00;;;;;;4906700;29;20280;-91
2021/01/14 02:08:12;;;;;;;13.68;7.15;;;7.50;74.30;;;;;;4923150;29;20188;-92
2021/01/14 02:10:54;;;;;;;9.73;7.40;;;7.50;74.60;;;;;;4906213;29;20194;-91
2021/01/14 02:13:34;;;;;;;14.07;6.75;;;7.50;74.70;;;;;;4906305;29;20205;-92
2021/01/14 02:16:02;;;;;;;15.60;8.25;;;7.80;75.20;;;;;;4905244;29;20178;-92
2021/01/14 02:18:29;;;;;;;12.93;7.68;;;7.80;74.10;;;;;;4905584;29;20186;-92
2021/01/14 02:21:03;;;;;;;11.85;8.05;;;7.90;74.30;;;;;;4904249;29;20240;-92
2021/01/14 02:23:55;;;;;;;10.73;7.15;;;8.20;74.50;;;;;;4903767;29;20190;-92
2021/01/14 02:26:23;;;;;;;15.00;7.80;;;8.40;74.30;;;;;;4905525;29;20201;-92
2021/01/14 02:28:49;;;;;;;19.33;8.68;;;8.30;73.80;;;;;;4906659;29;20221;-92
2021/01/14 02:31:15;;;;;;;14.32;8.30;;;8.00;74.00;;;;;;4924468;29;20194;-91
2021/01/14 02:33:42;;;;;;;16.58;8.75;;;7.70;74.80;;;;;;4910320;29;20182;-91
2021/01/14 02:36:08;;;;;;;13.52;9.00;;;7.60;75.30;;;;;;4911445;29;20270;-92
2021/01/14 02:38:35;;;;;;;24.77;9.55;;;7.40;76.00;;;;;;4915018;29;20241;-92
2021/01/14 02:41:01;;;;;;;14.20;9.35;;;7.30;77.00;;;;;;4914545;29;20228;-92
2021/01/14 02:43:26;;;;;;;15.80;10.20;;;7.20;77.60;;;;;;4913474;29;20236;-91
2021/01/14 02:45:53;;;;;;;20.97;10.30;;;7.30;77.60;;;;;;4910999;29;20214;-92
2021/01/14 02:48:42;;;;;;;15.52;9.57;;;7.60;77.40;;;;;;4905711;29;20193;-93
2021/01/14 02:51:30;;;;;;;16.13;9.55;;;7.80;76.70;;;;;;4906497;29;20242;-93
2021/01/14 02:53:58;;;;;;;18.23;10.25;;;7.80;76.10;;;;;;4904450;29;20182;-93
2021/01/14 02:56:26;;;;;;;17.25;10.88;;;7.90;76.00;;;;;;4904516;29;20186;-94
2021/01/14 02:58:55;;;;;;;23.23;11.48;;;8.00;75.70;;;;;;4905547;29;20269;-92
2021/01/14 03:01:21;;;;;;;21.02;11.45;;;7.70;75.90;;;;;;4905091;29;20292;-93
2021/01/14 03:03:47;;;;;;;31.30;13.30;;;7.80;76.10;;;;;;4906093;29;20213;-93
2021/01/14 03:06:12;;;;;;;27.30;11.13;;;7.90;76.50;;;;;;4903923;29;20977;-94
2021/01/14 03:08:38;;;;;;;16.40;9.10;;;8.10;76.30;;;;;;4905365;29;20200;-93
2021/01/14 03:11:04;;;;;;;11.37;4.87;;;7.80;75.80;;;;;;4911841;29;20228;-92
2021/01/14 03:13:38;;;;;;;14.00;4.67;;;7.30;77.20;;;;;;4922531;29;20194;-93
